WAT258 EDDH-EDDS
Flight info
| Callsign | WAT258 |
|---|---|
| Flight time | 0h 56m |
| Altitude | 36000 |
| Route | AMLUH2G AMLUH M852 DENIX Z113 SAS/N0435F310 P605 ELNAT/N0388F230 P605 TOSTU T726 LBU |
| Aircraft | A321/M-SDE3FGHIRWY/LB1 |
Departure
| Time | 2026-04-22 06:35 |
|---|---|
| Airport | Hamburg Helmut Schmidt Airport (EDDH) |
Arrival
| Time | 2026-04-22 07:32 |
|---|---|
| Airport | Stuttgart Airport (EDDS) |
| Time | Latitude | Longitude | Altitude | Speed | Heading |
|---|---|---|---|---|---|
| 2026-04-22 06:12 | 53.63208 | 10.00358 | 51 ft | 0 kts | 87° |
| 2026-04-22 06:29 | 53.63207 | 10.00356 | 51 ft | 2 kts | 87° |
| 2026-04-22 06:29 | 53.63207 | 10.00314 | 51 ft | 4 kts | 93° |
| 2026-04-22 06:29 | 53.63210 | 10.00269 | 51 ft | 4 kts | 101° |
| 2026-04-22 06:29 | 53.63216 | 10.00225 | 49 ft | 4 kts | 113° |
| 2026-04-22 06:30 | 53.63229 | 10.00188 | 47 ft | 4 kts | 143° |
| 2026-04-22 06:30 | 53.63243 | 10.00176 | 47 ft | 0 kts | 176° |
| 2026-04-22 06:32 | 53.63238 | 10.00177 | 47 ft | 2 kts | 176° |
| 2026-04-22 06:32 | 53.63214 | 10.00179 | 49 ft | 5 kts | 176° |
| 2026-04-22 06:32 | 53.63167 | 10.00185 | 47 ft | 8 kts | 176° |
| 2026-04-22 06:32 | 53.63100 | 10.00192 | 49 ft | 10 kts | 181° |
| 2026-04-22 06:33 | 53.63041 | 10.00154 | 51 ft | 9 kts | 211° |
| 2026-04-22 06:33 | 53.62992 | 10.00102 | 49 ft | 8 kts | 212° |
| 2026-04-22 06:33 | 53.62947 | 10.00052 | 50 ft | 7 kts | 217° |
| 2026-04-22 06:33 | 53.62913 | 9.99972 | 50 ft | 10 kts | 242° |
| 2026-04-22 06:34 | 53.62883 | 9.99871 | 50 ft | 9 kts | 243° |
| 2026-04-22 06:34 | 53.62867 | 9.99757 | 49 ft | 10 kts | 295° |
| 2026-04-22 06:34 | 53.62899 | 9.99717 | 49 ft | 0 kts | 331° |
| 2026-04-22 06:34 | 53.62947 | 9.99674 | 49 ft | 31 kts | 332° |
| 2026-04-22 06:35 | 53.63369 | 9.99310 | 50 ft | 102 kts | 333° |
| 2026-04-22 06:35 | 53.64171 | 9.98620 | 51 ft | 154 kts | 333° |
| 2026-04-22 06:35 | 53.65208 | 9.97724 | 366 ft | 169 kts | 333° |
| 2026-04-22 06:35 | 53.66218 | 9.96856 | 1231 ft | 160 kts | 333° |
| 2026-04-22 06:36 | 53.67210 | 9.96007 | 1915 ft | 162 kts | 333° |
| 2026-04-22 06:36 | 53.68259 | 9.95112 | 2296 ft | 179 kts | 334° |
| 2026-04-22 06:36 | 53.69540 | 9.94637 | 2515 ft | 201 kts | 360° |
| 2026-04-22 06:36 | 53.70983 | 9.94653 | 2926 ft | 212 kts | 0° |
| 2026-04-22 06:37 | 53.72428 | 9.95131 | 3624 ft | 216 kts | 29° |
| 2026-04-22 06:37 | 53.73391 | 9.97035 | 4319 ft | 219 kts | 68° |
| 2026-04-22 06:37 | 53.73810 | 9.99510 | 5049 ft | 220 kts | 75° |
| 2026-04-22 06:37 | 53.74104 | 10.02044 | 5727 ft | 222 kts | 86° |
| 2026-04-22 06:38 | 53.73852 | 10.04635 | 6346 ft | 231 kts | 108° |
| 2026-04-22 06:38 | 53.73068 | 10.07161 | 6609 ft | 256 kts | 117° |
| 2026-04-22 06:38 | 53.72151 | 10.09868 | 7136 ft | 271 kts | 117° |
| 2026-04-22 06:38 | 53.71215 | 10.12630 | 7912 ft | 276 kts | 117° |
| 2026-04-22 06:39 | 53.70257 | 10.15457 | 8730 ft | 279 kts | 117° |
| 2026-04-22 06:39 | 53.69204 | 10.18225 | 9543 ft | 284 kts | 128° |
| 2026-04-22 06:39 | 53.67702 | 10.20438 | 10336 ft | 292 kts | 146° |
| 2026-04-22 06:39 | 53.65816 | 10.21795 | 11007 ft | 301 kts | 161° |
| 2026-04-22 06:40 | 53.63718 | 10.22776 | 11240 ft | 324 kts | 162° |
| 2026-04-22 06:40 | 53.61465 | 10.23814 | 11407 ft | 347 kts | 162° |
| 2026-04-22 06:40 | 53.59087 | 10.24900 | 11849 ft | 359 kts | 162° |
| 2026-04-22 06:40 | 53.56658 | 10.26004 | 12511 ft | 364 kts | 162° |
| 2026-04-22 06:41 | 53.54194 | 10.27120 | 13218 ft | 368 kts | 162° |
| 2026-04-22 06:41 | 53.51709 | 10.28243 | 13934 ft | 372 kts | 162° |
| 2026-04-22 06:41 | 53.49200 | 10.29379 | 14588 ft | 376 kts | 161° |
| 2026-04-22 06:41 | 53.46661 | 10.30533 | 15225 ft | 380 kts | 161° |
| 2026-04-22 06:42 | 53.44099 | 10.31700 | 15838 ft | 383 kts | 161° |
| 2026-04-22 06:42 | 53.41516 | 10.32879 | 16471 ft | 387 kts | 161° |
| 2026-04-22 06:42 | 53.38909 | 10.34063 | 17075 ft | 390 kts | 161° |
| 2026-04-22 06:42 | 53.36274 | 10.35251 | 17695 ft | 394 kts | 161° |
| 2026-04-22 06:43 | 53.33618 | 10.36444 | 18298 ft | 397 kts | 160° |
| 2026-04-22 06:43 | 53.30934 | 10.37648 | 18856 ft | 401 kts | 160° |
| 2026-04-22 06:43 | 53.28229 | 10.38856 | 19367 ft | 404 kts | 160° |
| 2026-04-22 06:43 | 53.25502 | 10.40074 | 19877 ft | 407 kts | 160° |
| 2026-04-22 06:44 | 53.22752 | 10.41305 | 20384 ft | 411 kts | 160° |
| 2026-04-22 06:44 | 53.19984 | 10.42542 | 20891 ft | 414 kts | 160° |
| 2026-04-22 06:44 | 53.17188 | 10.43787 | 21387 ft | 417 kts | 160° |
| 2026-04-22 06:44 | 53.14350 | 10.44952 | 21876 ft | 424 kts | 165° |
| 2026-04-22 06:45 | 53.11386 | 10.45466 | 22357 ft | 433 kts | 174° |
| 2026-04-22 06:45 | 53.08350 | 10.45262 | 22824 ft | 440 kts | 179° |
| 2026-04-22 06:45 | 53.05283 | 10.44943 | 23299 ft | 443 kts | 179° |
| 2026-04-22 06:45 | 53.02192 | 10.44630 | 23764 ft | 447 kts | 179° |
| 2026-04-22 06:46 | 52.99076 | 10.44325 | 24180 ft | 450 kts | 178° |
| 2026-04-22 06:46 | 52.95938 | 10.44020 | 24582 ft | 453 kts | 178° |
| 2026-04-22 06:46 | 52.92783 | 10.43707 | 24996 ft | 455 kts | 179° |
| 2026-04-22 06:46 | 52.89614 | 10.43392 | 25408 ft | 457 kts | 179° |
| 2026-04-22 06:47 | 52.86431 | 10.43076 | 25815 ft | 459 kts | 179° |
| 2026-04-22 06:47 | 52.83233 | 10.42761 | 26222 ft | 461 kts | 179° |
| 2026-04-22 06:47 | 52.80023 | 10.42448 | 26620 ft | 463 kts | 179° |
| 2026-04-22 06:47 | 52.76791 | 10.42130 | 27016 ft | 466 kts | 179° |
| 2026-04-22 06:48 | 52.73560 | 10.41412 | 27396 ft | 473 kts | 188° |
| 2026-04-22 06:48 | 52.70378 | 10.39878 | 27776 ft | 480 kts | 198° |
| 2026-04-22 06:48 | 52.67348 | 10.37522 | 28154 ft | 485 kts | 208° |
| 2026-04-22 06:48 | 52.64529 | 10.34417 | 28522 ft | 489 kts | 214° |
| 2026-04-22 06:49 | 52.61770 | 10.31128 | 28891 ft | 491 kts | 214° |
| 2026-04-22 06:49 | 52.58991 | 10.27846 | 29253 ft | 492 kts | 214° |
| 2026-04-22 06:49 | 52.56195 | 10.24572 | 29620 ft | 494 kts | 213° |
| 2026-04-22 06:49 | 52.53387 | 10.21304 | 29975 ft | 496 kts | 213° |
| 2026-04-22 06:50 | 52.50602 | 10.18066 | 30382 ft | 496 kts | 213° |
| 2026-04-22 06:50 | 52.47788 | 10.14787 | 30812 ft | 495 kts | 213° |
| 2026-04-22 06:50 | 52.44988 | 10.11519 | 31238 ft | 493 kts | 214° |
| 2026-04-22 06:50 | 52.42198 | 10.08265 | 31659 ft | 491 kts | 214° |
| 2026-04-22 06:51 | 52.39409 | 10.05023 | 32068 ft | 490 kts | 214° |
| 2026-04-22 06:51 | 52.36628 | 10.01793 | 32490 ft | 489 kts | 214° |
| 2026-04-22 06:51 | 52.33856 | 9.98581 | 32886 ft | 488 kts | 214° |
| 2026-04-22 06:51 | 52.31089 | 9.95376 | 33311 ft | 487 kts | 214° |
| 2026-04-22 06:52 | 52.28280 | 9.92288 | 33707 ft | 485 kts | 208° |
| 2026-04-22 06:52 | 52.25271 | 9.89844 | 34097 ft | 482 kts | 199° |
| 2026-04-22 06:52 | 52.22098 | 9.88141 | 34369 ft | 479 kts | 191° |
| 2026-04-22 06:53 | 52.16658 | 9.86767 | 34407 ft | 475 kts | 184° |
| 2026-04-22 06:53 | 52.10101 | 9.85504 | 34399 ft | 475 kts | 184° |
| 2026-04-22 06:54 | 52.03542 | 9.84221 | 34599 ft | 475 kts | 184° |
| 2026-04-22 06:54 | 52.00258 | 9.83575 | 34922 ft | 474 kts | 184° |
| 2026-04-22 06:54 | 51.96984 | 9.82933 | 35214 ft | 474 kts | 184° |
| 2026-04-22 06:54 | 51.93708 | 9.82295 | 35506 ft | 474 kts | 184° |
| 2026-04-22 06:55 | 51.90432 | 9.81659 | 35789 ft | 474 kts | 185° |
| 2026-04-22 06:55 | 51.87162 | 9.81025 | 36049 ft | 473 kts | 185° |
| 2026-04-22 06:55 | 51.83892 | 9.80399 | 36297 ft | 474 kts | 185° |
| 2026-04-22 06:56 | 51.77355 | 9.79153 | 36382 ft | 471 kts | 185° |
| 2026-04-22 06:56 | 51.70851 | 9.77922 | 36383 ft | 470 kts | 185° |
| 2026-04-22 06:57 | 51.64358 | 9.76703 | 36376 ft | 470 kts | 185° |
| 2026-04-22 06:57 | 51.57864 | 9.75467 | 36374 ft | 470 kts | 185° |
| 2026-04-22 06:58 | 51.51372 | 9.74236 | 36374 ft | 470 kts | 185° |
| 2026-04-22 06:58 | 51.44871 | 9.73019 | 36386 ft | 470 kts | 185° |
| 2026-04-22 06:59 | 51.38363 | 9.71935 | 36389 ft | 470 kts | 184° |
| 2026-04-22 06:59 | 51.31848 | 9.70925 | 36389 ft | 470 kts | 184° |
| 2026-04-22 07:00 | 51.25332 | 9.69902 | 36389 ft | 470 kts | 184° |
| 2026-04-22 07:00 | 51.18823 | 9.69141 | 36265 ft | 468 kts | 177° |
| 2026-04-22 07:00 | 51.15572 | 9.69222 | 36014 ft | 467 kts | 177° |
| 2026-04-22 07:01 | 51.12324 | 9.69319 | 35774 ft | 467 kts | 176° |
| 2026-04-22 07:01 | 51.09076 | 9.69428 | 35534 ft | 466 kts | 176° |
| 2026-04-22 07:01 | 51.05877 | 9.69539 | 35333 ft | 465 kts | 176° |
| 2026-04-22 07:02 | 50.99362 | 9.69762 | 35361 ft | 466 kts | 176° |
| 2026-04-22 07:02 | 50.92881 | 9.69969 | 35360 ft | 466 kts | 177° |
| 2026-04-22 07:03 | 50.86448 | 9.70178 | 35360 ft | 466 kts | 176° |
| 2026-04-22 07:03 | 50.79980 | 9.70712 | 35345 ft | 465 kts | 174° |
| 2026-04-22 07:04 | 50.73529 | 9.71500 | 35358 ft | 465 kts | 173° |
| 2026-04-22 07:04 | 50.67070 | 9.72258 | 35347 ft | 465 kts | 174° |
| 2026-04-22 07:05 | 50.60611 | 9.72935 | 35353 ft | 465 kts | 174° |
| 2026-04-22 07:05 | 50.54144 | 9.73574 | 35347 ft | 465 kts | 175° |
| 2026-04-22 07:06 | 50.47683 | 9.74211 | 35339 ft | 466 kts | 175° |
| 2026-04-22 07:06 | 50.41212 | 9.74862 | 35331 ft | 466 kts | 175° |
| 2026-04-22 07:07 | 50.34739 | 9.75524 | 35335 ft | 466 kts | 175° |
| 2026-04-22 07:07 | 50.28262 | 9.76181 | 35333 ft | 466 kts | 175° |
| 2026-04-22 07:08 | 50.21778 | 9.76829 | 35330 ft | 467 kts | 175° |
| 2026-04-22 07:08 | 50.15296 | 9.77477 | 35323 ft | 467 kts | 175° |
| 2026-04-22 07:09 | 50.08808 | 9.78127 | 35317 ft | 467 kts | 175° |
| 2026-04-22 07:09 | 50.02315 | 9.78703 | 35312 ft | 468 kts | 176° |
| 2026-04-22 07:10 | 49.95808 | 9.79093 | 35144 ft | 469 kts | 177° |
| 2026-04-22 07:10 | 49.92553 | 9.79267 | 34756 ft | 468 kts | 177° |
| 2026-04-22 07:10 | 49.89262 | 9.79452 | 33746 ft | 476 kts | 176° |
| 2026-04-22 07:10 | 49.85945 | 9.79652 | 32875 ft | 478 kts | 176° |
| 2026-04-22 07:11 | 49.82607 | 9.79868 | 31939 ft | 482 kts | 175° |
| 2026-04-22 07:11 | 49.79256 | 9.80089 | 31076 ft | 483 kts | 175° |
| 2026-04-22 07:11 | 49.75904 | 9.80310 | 30387 ft | 480 kts | 174° |
| 2026-04-22 07:11 | 49.72585 | 9.80523 | 29736 ft | 475 kts | 174° |
| 2026-04-22 07:12 | 49.69304 | 9.80725 | 29130 ft | 469 kts | 175° |
| 2026-04-22 07:12 | 49.66055 | 9.80891 | 28534 ft | 464 kts | 175° |
| 2026-04-22 07:12 | 49.62844 | 9.81027 | 27947 ft | 459 kts | 175° |
| 2026-04-22 07:12 | 49.59688 | 9.81394 | 27371 ft | 451 kts | 168° |
| 2026-04-22 07:13 | 49.56619 | 9.82214 | 26779 ft | 446 kts | 166° |
| 2026-04-22 07:13 | 49.53585 | 9.83054 | 26202 ft | 441 kts | 166° |
| 2026-04-22 07:13 | 49.50577 | 9.83895 | 25629 ft | 437 kts | 166° |
| 2026-04-22 07:13 | 49.47595 | 9.84727 | 25060 ft | 434 kts | 166° |
| 2026-04-22 07:14 | 49.44636 | 9.85548 | 24510 ft | 430 kts | 166° |
| 2026-04-22 07:14 | 49.41708 | 9.86356 | 23962 ft | 427 kts | 166° |
| 2026-04-22 07:14 | 49.38792 | 9.87158 | 23378 ft | 423 kts | 166° |
| 2026-04-22 07:14 | 49.35922 | 9.87945 | 22873 ft | 416 kts | 167° |
| 2026-04-22 07:15 | 49.33096 | 9.88716 | 22408 ft | 409 kts | 166° |
| 2026-04-22 07:15 | 49.30313 | 9.89480 | 21942 ft | 403 kts | 167° |
| 2026-04-22 07:15 | 49.27614 | 9.90220 | 21505 ft | 396 kts | 166° |
| 2026-04-22 07:15 | 49.24919 | 9.90961 | 21064 ft | 391 kts | 167° |
| 2026-04-22 07:16 | 49.22185 | 9.91277 | 20632 ft | 390 kts | 181° |
| 2026-04-22 07:16 | 49.19575 | 9.90464 | 20198 ft | 389 kts | 199° |
| 2026-04-22 07:16 | 49.17198 | 9.88532 | 19754 ft | 388 kts | 216° |
| 2026-04-22 07:16 | 49.15286 | 9.85650 | 19279 ft | 385 kts | 234° |
| 2026-04-22 07:17 | 49.13994 | 9.82103 | 18819 ft | 382 kts | 250° |
| 2026-04-22 07:17 | 49.13084 | 9.78303 | 18304 ft | 380 kts | 251° |
| 2026-04-22 07:17 | 49.12177 | 9.74527 | 17822 ft | 377 kts | 251° |
| 2026-04-22 07:17 | 49.11270 | 9.70783 | 17336 ft | 375 kts | 250° |
| 2026-04-22 07:18 | 49.10365 | 9.67067 | 16858 ft | 373 kts | 250° |
| 2026-04-22 07:18 | 49.09463 | 9.63363 | 16370 ft | 371 kts | 250° |
| 2026-04-22 07:18 | 49.08566 | 9.59685 | 15892 ft | 370 kts | 250° |
| 2026-04-22 07:18 | 49.07670 | 9.56015 | 15402 ft | 368 kts | 250° |
| 2026-04-22 07:19 | 49.06776 | 9.52354 | 14913 ft | 368 kts | 249° |
| 2026-04-22 07:19 | 49.05664 | 9.48864 | 14441 ft | 366 kts | 237° |
| 2026-04-22 07:19 | 49.04120 | 9.45789 | 13960 ft | 365 kts | 225° |
| 2026-04-22 07:19 | 49.02224 | 9.43271 | 13481 ft | 360 kts | 213° |
| 2026-04-22 07:20 | 49.00082 | 9.41338 | 13027 ft | 355 kts | 206° |
| 2026-04-22 07:20 | 48.97919 | 9.39547 | 12569 ft | 353 kts | 206° |
| 2026-04-22 07:20 | 48.95776 | 9.37764 | 12127 ft | 349 kts | 206° |
| 2026-04-22 07:20 | 48.93681 | 9.36016 | 11986 ft | 338 kts | 206° |
| 2026-04-22 07:21 | 48.91656 | 9.34325 | 11856 ft | 325 kts | 206° |
| 2026-04-22 07:21 | 48.89804 | 9.32522 | 11555 ft | 311 kts | 217° |
| 2026-04-22 07:21 | 48.88280 | 9.30215 | 11184 ft | 309 kts | 231° |
| 2026-04-22 07:21 | 48.86999 | 9.27601 | 10810 ft | 308 kts | 232° |
| 2026-04-22 07:22 | 48.85725 | 9.24990 | 10449 ft | 308 kts | 232° |
| 2026-04-22 07:22 | 48.84446 | 9.22387 | 10075 ft | 307 kts | 232° |
| 2026-04-22 07:22 | 48.83181 | 9.19820 | 9652 ft | 297 kts | 232° |
| 2026-04-22 07:22 | 48.81961 | 9.17350 | 9252 ft | 290 kts | 231° |
| 2026-04-22 07:23 | 48.80756 | 9.14917 | 8860 ft | 288 kts | 231° |
| 2026-04-22 07:23 | 48.79545 | 9.12477 | 8471 ft | 290 kts | 231° |
| 2026-04-22 07:23 | 48.78349 | 9.10071 | 8061 ft | 279 kts | 231° |
| 2026-04-22 07:23 | 48.77215 | 9.07786 | 7716 ft | 262 kts | 231° |
| 2026-04-22 07:24 | 48.76147 | 9.05626 | 7346 ft | 252 kts | 230° |
| 2026-04-22 07:24 | 48.75085 | 9.03512 | 6976 ft | 251 kts | 228° |
| 2026-04-22 07:24 | 48.73996 | 9.01458 | 6610 ft | 249 kts | 227° |
| 2026-04-22 07:24 | 48.72895 | 8.99437 | 6207 ft | 248 kts | 227° |
| 2026-04-22 07:25 | 48.71788 | 8.97425 | 5818 ft | 249 kts | 226° |
| 2026-04-22 07:25 | 48.70685 | 8.95415 | 5430 ft | 248 kts | 227° |
| 2026-04-22 07:25 | 48.69588 | 8.93407 | 5059 ft | 246 kts | 227° |
| 2026-04-22 07:25 | 48.68517 | 8.91436 | 5003 ft | 240 kts | 227° |
| 2026-04-22 07:26 | 48.67446 | 8.89503 | 5014 ft | 238 kts | 222° |
| 2026-04-22 07:26 | 48.66134 | 8.88153 | 5004 ft | 216 kts | 196° |
| 2026-04-22 07:26 | 48.64767 | 8.87854 | 5026 ft | 190 kts | 163° |
| 2026-04-22 07:26 | 48.63664 | 8.88719 | 5008 ft | 174 kts | 129° |
| 2026-04-22 07:27 | 48.63111 | 8.90279 | 5013 ft | 168 kts | 99° |
| 2026-04-22 07:27 | 48.63201 | 8.92018 | 5004 ft | 168 kts | 75° |
| 2026-04-22 07:27 | 48.63533 | 8.93719 | 4918 ft | 169 kts | 75° |
| 2026-04-22 07:27 | 48.63863 | 8.95424 | 4725 ft | 169 kts | 76° |
| 2026-04-22 07:28 | 48.64517 | 8.98812 | 4288 ft | 167 kts | 76° |
| 2026-04-22 07:28 | 48.64840 | 9.00491 | 4057 ft | 166 kts | 76° |
| 2026-04-22 07:28 | 48.65149 | 9.02097 | 3842 ft | 153 kts | 77° |
| 2026-04-22 07:29 | 48.65438 | 9.03604 | 3634 ft | 147 kts | 77° |
| 2026-04-22 07:29 | 48.65720 | 9.05073 | 3440 ft | 145 kts | 77° |
| 2026-04-22 07:29 | 48.65999 | 9.06532 | 3241 ft | 144 kts | 76° |
| 2026-04-22 07:29 | 48.66278 | 9.07990 | 3032 ft | 145 kts | 75° |
| 2026-04-22 07:30 | 48.66557 | 9.09446 | 2838 ft | 143 kts | 75° |
| 2026-04-22 07:30 | 48.66833 | 9.10892 | 2630 ft | 143 kts | 76° |
| 2026-04-22 07:30 | 48.67108 | 9.12335 | 2488 ft | 143 kts | 75° |
| 2026-04-22 07:30 | 48.67384 | 9.13786 | 2254 ft | 142 kts | 74° |
| 2026-04-22 07:31 | 48.67654 | 9.15204 | 2033 ft | 142 kts | 75° |
| 2026-04-22 07:31 | 48.67935 | 9.16644 | 1859 ft | 143 kts | 75° |
| 2026-04-22 07:31 | 48.68209 | 9.18083 | 1628 ft | 142 kts | 74° |
| 2026-04-22 07:31 | 48.68481 | 9.19512 | 1460 ft | 142 kts | 73° |
| 2026-04-22 07:32 | 48.68752 | 9.20935 | 1303 ft | 135 kts | 75° |
| 2026-04-22 07:32 | 48.68981 | 9.22163 | 1288 ft | 99 kts | 74° |
| 2026-04-22 07:32 | 48.69101 | 9.22809 | 1287 ft | 28 kts | 67° |
| 2026-04-22 07:32 | 48.69219 | 9.23027 | 1287 ft | 26 kts | 44° |
| 2026-04-22 07:33 | 48.69334 | 9.23153 | 1285 ft | 18 kts | 3° |
| 2026-04-22 07:33 | 48.69405 | 9.23038 | 1287 ft | 16 kts | 268° |
| 2026-04-22 07:33 | 48.69378 | 9.22883 | 1288 ft | 15 kts | 253° |
| 2026-04-22 07:33 | 48.69350 | 9.22741 | 1288 ft | 13 kts | 253° |
| 2026-04-22 07:34 | 48.69323 | 9.22595 | 1285 ft | 17 kts | 254° |
| 2026-04-22 07:34 | 48.69285 | 9.22396 | 1289 ft | 22 kts | 254° |
| 2026-04-22 07:34 | 48.69243 | 9.22172 | 1288 ft | 22 kts | 254° |
| 2026-04-22 07:34 | 48.69203 | 9.21958 | 1290 ft | 21 kts | 254° |
| 2026-04-22 07:35 | 48.69177 | 9.21822 | 1289 ft | 20 kts | 253° |
| 2026-04-22 07:35 | 48.69139 | 9.21626 | 1285 ft | 19 kts | 253° |
| 2026-04-22 07:35 | 48.69104 | 9.21441 | 1290 ft | 18 kts | 254° |
| 2026-04-22 07:35 | 48.69071 | 9.21268 | 1288 ft | 17 kts | 254° |
| 2026-04-22 07:36 | 48.69040 | 9.21101 | 1285 ft | 17 kts | 254° |
| 2026-04-22 07:36 | 48.69007 | 9.20929 | 1285 ft | 17 kts | 253° |
| 2026-04-22 07:36 | 48.68974 | 9.20752 | 1288 ft | 18 kts | 254° |
| 2026-04-22 07:36 | 48.68942 | 9.20580 | 1288 ft | 16 kts | 254° |
| 2026-04-22 07:37 | 48.68911 | 9.20418 | 1287 ft | 16 kts | 254° |
| 2026-04-22 07:37 | 48.68875 | 9.20232 | 1290 ft | 20 kts | 253° |
| 2026-04-22 07:37 | 48.68837 | 9.20037 | 1285 ft | 19 kts | 254° |
| 2026-04-22 07:37 | 48.68837 | 9.19901 | 1290 ft | 12 kts | 312° |
| 2026-04-22 07:38 | 48.68886 | 9.19824 | 1287 ft | 10 kts | 272° |
| 2026-04-22 07:38 | 48.68872 | 9.19735 | 1287 ft | 6 kts | 251° |
| 2026-04-22 07:38 | 48.68843 | 9.19719 | 1285 ft | 4 kts | 176° |
| 2026-04-22 07:38 | 48.68811 | 9.19730 | 1285 ft | 4 kts | 165° |
| 2026-04-22 07:39 | 48.68806 | 9.19732 | 1288 ft | 0 kts | 165° |